createdAt,value
2018-09-28T00:00:58.268Z,5.93
2018-09-28T00:03:26.591Z,4.60
2018-09-28T00:05:58.092Z,4.83
2018-09-28T00:08:26.188Z,6.73
2018-09-28T00:10:54.151Z,5.67
2018-09-28T00:13:22.211Z,5.70
2018-09-28T00:15:50.174Z,5.07
2018-09-28T00:18:18.194Z,5.40
2018-09-28T00:20:46.158Z,8.47
2018-09-28T00:23:14.126Z,5.03
2018-09-28T00:25:42.253Z,5.30
2018-09-28T00:28:10.235Z,5.77
2018-09-28T00:30:38.208Z,6.30
2018-09-28T00:33:06.412Z,5.70
2018-09-28T00:35:34.432Z,5.30
2018-09-28T00:38:02.456Z,7.40
2018-09-28T00:40:30.423Z,5.57
2018-09-28T00:42:58.420Z,6.50
2018-09-28T00:45:26.421Z,5.33
2018-09-28T00:47:54.487Z,5.23
2018-09-28T00:50:22.495Z,6.10
2018-09-28T00:52:50.463Z,6.80
2018-09-28T00:55:18.522Z,5.80
2018-09-28T00:57:46.484Z,7.10
2018-09-28T01:00:14.484Z,5.97
2018-09-28T01:02:42.554Z,5.20
2018-09-28T01:05:10.596Z,5.00
2018-09-28T01:07:38.537Z,5.70
2018-09-28T01:10:06.512Z,5.93
2018-09-28T01:12:34.606Z,6.03
2018-09-28T01:15:02.607Z,5.70
2018-09-28T01:17:30.577Z,5.60
2018-09-28T01:19:58.643Z,5.43
2018-09-28T01:22:26.635Z,5.80
2018-09-28T01:24:54.623Z,5.90
2018-09-28T01:27:22.669Z,5.87
2018-09-28T01:29:50.665Z,6.60
2018-09-28T01:32:19.121Z,5.87
2018-09-28T01:34:47.168Z,5.90
2018-09-28T01:37:15.236Z,7.00
2018-09-28T01:39:43.973Z,7.10
2018-09-28T01:42:12.014Z,6.70
2018-09-28T01:44:40.024Z,6.43
2018-09-28T01:47:11.215Z,6.50
2018-09-28T01:49:39.316Z,8.20
2018-09-28T01:52:07.345Z,6.20
2018-09-28T01:54:35.339Z,6.50
2018-09-28T01:57:03.437Z,6.10
2018-09-28T01:59:31.416Z,7.70
2018-09-28T02:01:59.575Z,7.40
2018-09-28T02:04:27.888Z,6.80
2018-09-28T02:06:55.885Z,7.27
2018-09-28T02:09:23.846Z,7.90
2018-09-28T02:11:51.920Z,7.97
2018-09-28T02:14:19.889Z,7.60
2018-09-28T02:16:47.959Z,7.50
2018-09-28T02:19:15.935Z,7.80
2018-09-28T02:21:44.024Z,8.37
2018-09-28T02:24:12.075Z,8.40
2018-09-28T02:26:40.081Z,8.27
2018-09-28T02:29:08.759Z,8.50
2018-09-28T02:31:36.804Z,8.53
2018-09-28T02:34:04.907Z,9.00
2018-09-28T02:36:32.892Z,9.60
2018-09-28T02:39:01.016Z,10.53
2018-09-28T02:41:29.137Z,9.50
2018-09-28T02:43:57.097Z,10.20
2018-09-28T02:46:25.083Z,11.10
2018-09-28T02:48:53.104Z,11.53
2018-09-28T02:51:21.106Z,11.40
2018-09-28T02:53:49.139Z,11.87
2018-09-28T02:56:17.251Z,12.43
2018-09-28T02:58:45.368Z,11.70
2018-09-28T03:01:13.337Z,12.03
2018-09-28T03:03:41.331Z,11.70
2018-09-28T03:06:09.430Z,12.90
2018-09-28T03:08:38.310Z,12.40
2018-09-28T03:11:06.523Z,12.73
2018-09-28T03:13:34.494Z,12.70
2018-09-28T03:16:02.543Z,12.10
2018-09-28T03:18:30.632Z,12.03
2018-09-28T03:20:58.618Z,12.70
2018-09-28T03:23:26.596Z,12.60
2018-09-28T03:25:54.639Z,13.63
2018-09-28T03:28:22.600Z,12.53
2018-09-28T03:30:50.973Z,12.40
2018-09-28T03:33:19.021Z,12.10
2018-09-28T03:35:46.996Z,11.63
2018-09-28T03:38:14.974Z,14.00
2018-09-28T03:40:43.197Z,12.77
2018-09-28T03:43:11.115Z,12.10
2018-09-28T03:45:39.203Z,13.97
2018-09-28T03:48:07.163Z,12.93
2018-09-28T03:50:35.151Z,13.83
2018-09-28T03:53:03.221Z,13.00
2018-09-28T03:55:31.281Z,14.20
2018-09-28T03:57:59.322Z,13.53
2018-09-28T04:00:27.327Z,13.53
2018-09-28T04:02:55.415Z,14.67
2018-09-28T04:05:23.329Z,15.03
2018-09-28T04:07:51.308Z,14.40
2018-09-28T04:10:19.321Z,14.80
2018-09-28T04:12:47.373Z,14.40
2018-09-28T04:15:15.363Z,14.37
2018-09-28T04:17:43.411Z,14.73
2018-09-28T04:20:11.460Z,15.53
2018-09-28T04:22:39.484Z,14.80
2018-09-28T04:25:07.503Z,14.40
2018-09-28T04:27:35.511Z,15.87
2018-09-28T04:30:03.809Z,16.13
2018-09-28T04:32:31.833Z,17.17
2018-09-28T04:34:59.821Z,16.23
2018-09-28T04:37:27.803Z,17.77
2018-09-28T04:39:55.811Z,16.80
2018-09-28T04:42:23.803Z,17.47
2018-09-28T04:44:51.771Z,18.00
2018-09-28T04:47:19.765Z,19.40
2018-09-28T04:49:47.812Z,19.27
2018-09-28T04:52:15.820Z,20.93
2018-09-28T04:54:43.902Z,17.80
2018-09-28T04:57:11.903Z,19.33
2018-09-28T04:59:39.889Z,18.67
2018-09-28T05:02:07.877Z,19.47
2018-09-28T05:04:35.850Z,19.97
2018-09-28T05:07:03.912Z,18.37
2018-09-28T05:09:32.584Z,17.48
2018-09-28T05:12:00.667Z,15.37
2018-09-28T05:14:28.733Z,16.53
2018-09-28T05:16:56.708Z,15.03
2018-09-28T05:19:24.845Z,14.80
2018-09-28T05:21:52.901Z,14.30
2018-09-28T05:24:20.864Z,15.00
2018-09-28T05:26:48.935Z,15.93
2018-09-28T05:29:17.746Z,15.13
2018-09-28T05:31:46.239Z,13.63
2018-09-28T05:34:14.133Z,13.50
2018-09-28T05:36:42.185Z,14.77
2018-09-28T05:39:10.528Z,14.83
2018-09-28T05:41:38.648Z,14.83
2018-09-28T05:44:07.857Z,14.00
2018-09-28T05:46:35.989Z,14.53
2018-09-28T05:49:03.978Z,13.40
2018-09-28T05:51:32.145Z,12.90
2018-09-28T05:54:00.188Z,12.53
2018-09-28T05:56:28.165Z,12.93
2018-09-28T05:59:02.174Z,12.73
2018-09-28T06:01:35.646Z,13.03
2018-09-28T06:04:09.023Z,11.70
2018-09-28T06:06:37.188Z,12.00
2018-09-28T06:09:07.971Z,11.27
2018-09-28T06:11:36.001Z,12.53
2018-09-28T06:14:04.085Z,11.50
2018-09-28T06:16:32.177Z,10.53
2018-09-28T06:19:00.215Z,11.30
2018-09-28T06:21:28.140Z,9.87
2018-09-28T06:23:56.162Z,9.83
2018-09-28T06:26:24.263Z,8.63
2018-09-28T06:28:52.320Z,8.40
2018-09-28T06:31:20.292Z,8.00
2018-09-28T06:33:48.381Z,8.27
2018-09-28T06:36:16.568Z,7.33
2018-09-28T06:38:44.593Z,5.80
2018-09-28T06:41:13.216Z,6.63
2018-09-28T06:43:41.219Z,6.53
2018-09-28T06:46:09.428Z,5.53
2018-09-28T06:48:37.411Z,4.30
2018-09-28T06:51:05.402Z,4.77
2018-09-28T06:53:33.445Z,4.60
2018-09-28T06:56:01.555Z,3.83
2018-09-28T06:58:29.587Z,3.20
2018-09-28T07:00:57.563Z,2.90
2018-09-28T07:03:25.855Z,2.73
2018-09-28T07:05:54.579Z,1.93
2018-09-28T07:08:22.620Z,2.93
2018-09-28T07:10:50.845Z,2.30
2018-09-28T07:13:18.904Z,2.23
2018-09-28T07:15:46.892Z,2.73
2018-09-28T07:18:15.005Z,1.97
2018-09-28T07:20:42.939Z,2.40
2018-09-28T07:23:11.330Z,1.90
2018-09-28T07:25:39.401Z,2.00
2018-09-28T07:28:07.370Z,1.93
2018-09-28T07:30:36.201Z,2.47
2018-09-28T07:33:04.165Z,2.33
2018-09-28T07:35:32.236Z,1.80
2018-09-28T07:38:00.214Z,2.17
2018-09-28T07:40:28.371Z,2.67
2018-09-28T07:42:56.474Z,3.10
2018-09-28T07:45:24.519Z,2.33
2018-09-28T07:47:52.560Z,2.93
2018-09-28T07:50:20.852Z,3.03
2018-09-28T07:52:49.118Z,2.40
2018-09-28T07:55:17.083Z,2.37
2018-09-28T07:57:45.053Z,2.77
2018-09-28T08:00:13.107Z,2.40
2018-09-28T08:02:41.084Z,2.73
2018-09-28T08:05:09.175Z,2.70
2018-09-28T08:07:37.313Z,3.00
2018-09-28T08:10:05.621Z,2.50
2018-09-28T08:12:33.701Z,2.67
2018-09-28T08:15:01.694Z,2.80
2018-09-28T08:17:29.724Z,2.53
2018-09-28T08:19:58.158Z,2.67
2018-09-28T08:22:26.156Z,2.40
2018-09-28T08:24:54.179Z,3.10
2018-09-28T08:27:22.168Z,3.33
2018-09-28T08:29:50.157Z,2.87
2018-09-28T08:32:18.139Z,3.03
2018-09-28T08:34:46.135Z,2.90
2018-09-28T08:37:14.230Z,3.17
2018-09-28T08:39:42.340Z,2.73
2018-09-28T08:42:10.414Z,3.80
2018-09-28T08:44:38.459Z,2.43
2018-09-28T08:47:06.447Z,2.57
2018-09-28T08:49:34.505Z,2.60
2018-09-28T08:52:02.557Z,2.50
2018-09-28T08:54:30.640Z,2.60
2018-09-28T08:56:58.607Z,2.90
2018-09-28T08:59:26.867Z,3.57
2018-09-28T09:01:54.859Z,2.70
2018-09-28T09:04:22.873Z,3.03
2018-09-28T09:06:51.165Z,2.63
2018-09-28T09:09:19.246Z,3.57
2018-09-28T09:11:47.329Z,2.50
2018-09-28T09:14:15.398Z,3.13
2018-09-28T09:16:43.513Z,2.80
2018-09-28T09:19:11.589Z,2.97
2018-09-28T09:21:39.556Z,3.70
2018-09-28T09:24:07.508Z,3.23
2018-09-28T09:26:35.583Z,2.90
2018-09-28T09:29:03.618Z,3.23
2018-09-28T09:31:31.723Z,2.20
2018-09-28T09:34:00.028Z,3.03
2018-09-28T09:36:28.125Z,2.17
2018-09-28T09:38:56.183Z,2.97
2018-09-28T09:41:24.435Z,2.40
2018-09-28T09:43:52.791Z,2.90
2018-09-28T09:46:20.767Z,2.90
2018-09-28T09:48:48.752Z,2.53
2018-09-28T09:51:16.823Z,2.63
2018-09-28T09:53:44.882Z,2.90
2018-09-28T09:56:13.161Z,1.83
2018-09-28T09:58:41.217Z,2.80
2018-09-28T10:01:13.481Z,2.57
2018-09-28T10:03:46.704Z,1.70
2018-09-28T10:06:14.731Z,2.77
2018-09-28T10:08:42.972Z,2.53
2018-09-28T10:11:10.957Z,2.90
2018-09-28T10:13:38.971Z,2.43
2018-09-28T10:16:06.964Z,3.00
2018-09-28T10:18:35.039Z,2.30
2018-09-28T10:21:03.126Z,2.60
2018-09-28T10:23:31.535Z,2.30
2018-09-28T10:25:59.652Z,2.40
2018-09-28T10:28:27.663Z,3.20
2018-09-28T10:30:55.777Z,3.37
2018-09-28T10:33:23.758Z,3.00
2018-09-28T10:35:51.815Z,3.07
2018-09-28T10:38:19.804Z,2.43
2018-09-28T10:40:47.871Z,2.63
2018-09-28T10:43:15.752Z,2.93
2018-09-28T10:45:43.857Z,3.80
2018-09-28T10:48:11.857Z,2.63
2018-09-28T10:50:40.028Z,3.37
2018-09-28T10:53:08.937Z,4.10
2018-09-28T10:55:36.894Z,3.80
2018-09-28T10:58:04.972Z,2.50
2018-09-28T11:00:33.031Z,3.10
2018-09-28T11:03:01.095Z,2.50
2018-09-28T11:05:29.535Z,2.70
2018-09-28T11:07:57.538Z,3.47
2018-09-28T11:10:25.533Z,3.33
2018-09-28T11:12:53.565Z,2.80
2018-09-28T11:15:21.705Z,2.40
2018-09-28T11:21:21.302Z,2.47
2018-09-28T11:23:49.411Z,3.10
2018-09-28T11:26:17.564Z,2.47
2018-09-28T11:28:45.536Z,3.00
2018-09-28T11:31:13.583Z,3.53
2018-09-28T11:33:42.523Z,2.30
2018-09-28T11:36:10.455Z,1.70
2018-09-28T11:38:38.947Z,2.30
2018-09-28T11:41:07.023Z,2.50
2018-09-28T11:43:35.168Z,2.20
2018-09-28T11:46:03.281Z,2.33
2018-09-28T11:48:31.322Z,2.30
2018-09-28T11:50:59.408Z,2.77
2018-09-28T11:53:27.475Z,2.30
2018-09-28T11:55:55.524Z,1.80
2018-09-28T11:58:23.663Z,2.77
2018-09-28T12:00:51.871Z,2.90
2018-09-28T12:03:19.920Z,2.00
2018-09-28T12:05:47.919Z,1.97
2018-09-28T12:08:16.092Z,2.53
2018-09-28T12:10:44.081Z,2.80
2018-09-28T12:13:12.131Z,1.63
2018-09-28T12:15:40.454Z,2.00
2018-09-28T12:18:08.427Z,2.20
2018-09-28T12:20:36.415Z,2.23
2018-09-28T12:23:04.547Z,2.50
2018-09-28T12:25:32.523Z,3.83
2018-09-28T12:28:00.584Z,2.40
2018-09-28T12:30:28.599Z,2.60
2018-09-28T12:32:56.688Z,1.93
2018-09-28T12:35:24.784Z,1.83
2018-09-28T12:37:52.824Z,2.10
2018-09-28T12:40:20.967Z,2.60
2018-09-28T12:42:49.284Z,1.97
2018-09-28T12:45:17.415Z,2.50
2018-09-28T12:47:45.400Z,2.80
2018-09-28T12:50:13.798Z,2.43
2018-09-28T12:52:41.827Z,2.20
2018-09-28T12:55:09.855Z,1.97
2018-09-28T12:57:37.908Z,2.47
2018-09-28T13:00:05.871Z,2.30
2018-09-28T13:02:34.016Z,5.90
2018-09-28T13:05:01.927Z,4.47
2018-09-28T13:07:29.909Z,2.17
2018-09-28T13:09:57.990Z,1.70
2018-09-28T13:12:26.107Z,2.80
2018-09-28T13:14:54.047Z,2.00
2018-09-28T13:17:22.256Z,2.43
2018-09-28T13:19:50.517Z,2.27
2018-09-28T13:22:18.577Z,2.17
2018-09-28T13:24:46.588Z,3.67
2018-09-28T13:27:14.725Z,2.50
2018-09-28T13:29:42.694Z,2.67
2018-09-28T13:32:10.796Z,2.00
2018-09-28T13:34:38.797Z,2.00
2018-09-28T13:37:07.364Z,2.10
2018-09-28T13:39:35.388Z,2.00
2018-09-28T13:42:03.471Z,2.03
2018-09-28T13:44:31.578Z,2.27
2018-09-28T13:46:59.624Z,1.30
2018-09-28T13:49:27.608Z,2.20
2018-09-28T13:51:55.702Z,2.40
2018-09-28T13:54:24.075Z,2.20
2018-09-28T13:56:52.100Z,2.30
2018-09-28T13:59:20.063Z,2.40
2018-09-28T14:01:48.085Z,1.73
2018-09-28T14:04:16.186Z,3.10
2018-09-28T14:06:44.189Z,2.27
2018-09-28T14:09:12.262Z,2.50
2018-09-28T14:11:40.271Z,2.40
2018-09-28T14:14:08.968Z,2.77
2018-09-28T14:16:37.654Z,3.90
2018-09-28T14:19:05.686Z,2.67
2018-09-28T14:21:34.020Z,1.80
2018-09-28T14:24:02.079Z,2.67
2018-09-28T14:26:30.899Z,1.80
2018-09-28T14:28:59.298Z,1.93
2018-09-28T14:31:27.733Z,2.90
2018-09-28T14:33:55.786Z,2.17
2018-09-28T14:36:24.082Z,1.80
2018-09-28T14:38:52.195Z,1.83
2018-09-28T14:41:20.261Z,2.53
2018-09-28T14:43:48.244Z,1.77
2018-09-28T14:46:16.372Z,1.80
2018-09-28T14:48:44.363Z,2.60
2018-09-28T14:51:12.349Z,1.70
2018-09-28T14:53:40.411Z,1.60
2018-09-28T14:56:08.522Z,1.80
2018-09-28T14:58:36.569Z,2.43
2018-09-28T15:01:04.775Z,2.77
2018-09-28T15:03:32.674Z,1.80
2018-09-28T15:06:00.653Z,1.80
2018-09-28T15:08:28.651Z,1.80
2018-09-28T15:10:56.815Z,2.00
2018-09-28T15:13:25.675Z,2.47
2018-09-28T15:15:53.978Z,1.50
2018-09-28T15:18:22.056Z,2.27
2018-09-28T15:20:50.075Z,1.80
2018-09-28T15:23:18.056Z,1.90
2018-09-28T15:25:46.073Z,1.50
2018-09-28T15:28:14.146Z,2.93
2018-09-28T15:30:42.743Z,2.60
2018-09-28T15:33:10.833Z,2.00
2018-09-28T15:35:38.806Z,1.90
2018-09-28T15:38:06.989Z,2.53
2018-09-28T15:40:35.110Z,2.30
2018-09-28T15:43:03.212Z,1.90
2018-09-28T15:45:31.547Z,2.13
2018-09-28T15:47:59.547Z,2.40
2018-09-28T15:50:27.564Z,2.13
2018-09-28T15:52:56.593Z,1.80
2018-09-28T15:55:24.697Z,3.10
2018-09-28T15:57:52.777Z,2.27
2018-09-28T16:00:20.900Z,2.77
2018-09-28T16:02:48.896Z,2.87
2018-09-28T16:05:16.912Z,2.80
2018-09-28T16:07:44.896Z,3.17
2018-09-28T16:10:12.863Z,2.80
2018-09-28T16:12:41.040Z,8.20
2018-09-28T16:15:09.011Z,2.97
2018-09-28T16:17:36.971Z,2.60
2018-09-28T16:20:05.443Z,2.47
2018-09-28T16:22:33.452Z,2.20
2018-09-28T16:25:01.452Z,2.53
2018-09-28T16:27:29.525Z,2.27
2018-09-28T16:29:57.537Z,3.00
2018-09-28T16:32:25.516Z,3.87
2018-09-28T16:34:53.495Z,2.47
2018-09-28T16:37:22.068Z,2.20
2018-09-28T16:39:50.216Z,4.53
2018-09-28T16:42:18.223Z,3.10
2018-09-28T16:44:46.452Z,2.73
2018-09-28T16:47:14.442Z,5.47
2018-09-28T16:49:42.395Z,2.70
2018-09-28T16:52:10.479Z,3.33
2018-09-28T16:54:38.624Z,4.00
2018-09-28T16:57:06.863Z,3.57
2018-09-28T16:59:34.865Z,5.30
2018-09-28T17:02:02.951Z,4.30
2018-09-28T17:04:30.931Z,6.20
2018-09-28T17:06:59.003Z,3.10
2018-09-28T17:09:27.060Z,4.50
2018-09-28T17:11:55.091Z,4.27
2018-09-28T17:14:23.151Z,5.90
2018-09-28T17:16:51.314Z,11.80
2018-09-28T17:19:19.327Z,3.37
2018-09-28T17:21:47.301Z,3.83
2018-09-28T17:24:15.259Z,4.47
2018-09-28T17:26:43.256Z,5.80
2018-09-28T17:29:11.209Z,4.90
2018-09-28T17:31:39.393Z,13.57
2018-09-28T17:34:07.577Z,5.20
2018-09-28T17:36:35.676Z,5.27
2018-09-28T17:39:04.450Z,7.83
2018-09-28T17:41:32.485Z,7.10
2018-09-28T17:44:00.458Z,9.20
2018-09-28T17:46:28.569Z,6.90
2018-09-28T17:48:56.737Z,6.97
2018-09-28T17:51:24.820Z,6.97
2018-09-28T17:53:52.823Z,5.33
2018-09-28T17:56:20.797Z,3.47
2018-09-28T17:58:48.916Z,5.73
2018-09-28T18:01:16.979Z,4.57
2018-09-28T18:03:44.966Z,5.50
2018-09-28T18:06:13.327Z,6.90
2018-09-28T18:08:41.324Z,3.83
2018-09-28T18:11:09.413Z,5.20
2018-09-28T18:13:37.439Z,7.47
2018-09-28T18:16:05.409Z,8.77
2018-09-28T18:18:33.584Z,4.50
2018-09-28T18:21:01.702Z,5.53
2018-09-28T18:23:29.914Z,6.90
2018-09-28T18:25:57.978Z,4.20
2018-09-28T18:28:26.211Z,5.67
2018-09-28T18:30:54.288Z,5.37
2018-09-28T18:33:22.336Z,5.90
2018-09-28T18:35:50.445Z,5.37
2018-09-28T18:38:18.500Z,5.50
2018-09-28T18:40:46.532Z,4.07
2018-09-28T18:43:14.561Z,4.20
2018-09-28T18:45:42.528Z,3.70
2018-09-28T18:48:10.531Z,4.17
2018-09-28T18:50:38.573Z,6.67
2018-09-28T18:53:06.875Z,6.00
2018-09-28T18:55:34.887Z,5.20
2018-09-28T18:58:02.938Z,6.53
2018-09-28T19:00:30.891Z,7.30
2018-09-28T19:02:58.898Z,5.30
2018-09-28T19:05:26.913Z,3.20
2018-09-28T19:07:54.981Z,3.63
2018-09-28T19:10:23.005Z,3.67
2018-09-28T19:12:51.748Z,4.70
2018-09-28T19:15:19.895Z,4.37
2018-09-28T19:17:48.295Z,4.00
2018-09-28T19:20:16.259Z,3.70
2018-09-28T19:22:44.315Z,3.47
2018-09-28T19:25:12.273Z,4.07
2018-09-28T19:27:40.269Z,3.70
2018-09-28T19:30:08.247Z,5.20
2018-09-28T19:32:36.201Z,10.20
2018-09-28T19:37:38.774Z,6.60
2018-09-28T19:40:06.765Z,5.73
2018-09-28T19:42:34.811Z,4.57
2018-09-28T19:45:02.794Z,5.60
2018-09-28T19:47:30.836Z,6.67
2018-09-28T19:49:58.848Z,6.97
2018-09-28T19:52:26.915Z,6.83
2018-09-28T19:57:58.917Z,7.33
2018-09-28T20:00:26.886Z,5.03
2018-09-28T20:02:55.278Z,4.67
2018-09-28T20:05:23.293Z,5.30
2018-09-28T20:07:51.485Z,4.30
2018-09-28T20:10:19.459Z,6.03
2018-09-28T20:12:47.429Z,4.93
2018-09-28T20:15:15.480Z,3.50
2018-09-28T20:17:43.443Z,5.50
2018-09-28T20:20:11.427Z,6.10
2018-09-28T20:22:39.505Z,8.27
2018-09-28T20:25:07.511Z,10.33
2018-09-28T20:27:35.493Z,6.10
2018-09-28T20:30:03.594Z,7.83
2018-09-28T20:32:31.661Z,6.43
2018-09-28T20:34:59.648Z,5.80
2018-09-28T20:37:27.693Z,5.13
2018-09-28T20:39:55.887Z,5.08
2018-09-28T20:42:23.971Z,6.00
2018-09-28T20:44:51.947Z,6.27
2018-09-28T20:47:19.991Z,6.23
2018-09-28T20:49:47.977Z,6.80
2018-09-28T20:52:16.005Z,5.20
2018-09-28T20:54:43.999Z,5.80
2018-09-28T20:57:11.955Z,4.20
2018-09-28T20:59:40.000Z,4.50
2018-09-28T21:02:08.053Z,6.13
2018-09-28T21:04:36.298Z,5.50
2018-09-28T21:07:04.286Z,4.53
2018-09-28T21:09:32.343Z,5.03
2018-09-28T21:12:00.320Z,5.40
2018-09-28T21:14:28.431Z,5.00
2018-09-28T21:16:57.118Z,5.83
2018-09-28T21:19:25.186Z,4.33
2018-09-28T21:21:53.161Z,5.00
2018-09-28T21:24:21.263Z,4.53
2018-09-28T21:26:49.319Z,5.10
2018-09-28T21:29:17.333Z,3.80
2018-09-28T21:31:45.498Z,4.20
2018-09-28T21:34:13.455Z,3.07
2018-09-28T21:36:41.505Z,2.97
2018-09-28T21:39:10.671Z,3.23
2018-09-28T21:41:38.781Z,3.20
2018-09-28T21:44:07.319Z,3.60
2018-09-28T21:46:35.297Z,3.20
2018-09-28T21:49:03.273Z,3.80
2018-09-28T21:51:31.247Z,2.90
2018-09-28T21:53:59.256Z,2.73
2018-09-28T21:56:27.251Z,2.87
2018-09-28T21:58:55.303Z,3.40
2018-09-28T22:01:23.271Z,2.40
2018-09-28T22:03:51.275Z,3.30
2018-09-28T22:06:19.323Z,4.17
2018-09-28T22:08:47.305Z,2.80
2018-09-28T22:11:15.412Z,3.27
2018-09-28T22:13:43.475Z,4.40
2018-09-28T22:16:11.552Z,3.20
2018-09-28T22:18:39.576Z,2.43
2018-09-28T22:21:07.566Z,3.23
2018-09-28T22:23:35.615Z,4.00
2018-09-28T22:26:03.690Z,3.43
2018-09-28T22:28:31.658Z,3.27
2018-09-28T22:30:59.741Z,3.77
2018-09-28T22:33:27.947Z,3.80
2018-09-28T22:35:56.089Z,3.60
2018-09-28T22:38:24.065Z,4.13
2018-09-28T22:40:52.058Z,3.20
2018-09-28T22:43:20.025Z,3.87
2018-09-28T22:45:48.169Z,3.97
2018-09-28T22:48:16.385Z,3.70
2018-09-28T22:50:44.465Z,4.50
2018-09-28T22:53:12.639Z,3.67
2018-09-28T22:55:40.824Z,4.07
2018-09-28T22:58:08.775Z,3.77
2018-09-28T23:00:36.747Z,3.20
2018-09-28T23:03:04.924Z,4.58
2018-09-28T23:05:32.902Z,3.10
2018-09-28T23:08:00.977Z,2.83
2018-09-28T23:10:29.612Z,3.10
2018-09-28T23:12:57.593Z,2.80
2018-09-28T23:15:25.856Z,3.60
2018-09-28T23:17:53.935Z,3.83
2018-09-28T23:20:21.911Z,3.80
2018-09-28T23:22:50.134Z,3.40
2018-09-28T23:25:18.212Z,3.20
2018-09-28T23:27:46.253Z,3.13
2018-09-28T23:30:14.298Z,3.83
2018-09-28T23:32:42.281Z,3.17
2018-09-28T23:35:10.257Z,2.90
2018-09-28T23:37:38.320Z,3.07
2018-09-28T23:40:06.623Z,3.97
2018-09-28T23:42:34.656Z,3.47
2018-09-28T23:45:02.624Z,3.20
2018-09-28T23:47:30.708Z,3.27
2018-09-28T23:49:58.652Z,3.50
2018-09-28T23:52:26.663Z,2.97
2018-09-28T23:54:54.630Z,3.77
2018-09-28T23:57:22.628Z,3.97
2018-09-28T23:59:50.750Z,3.13
